Time;durP1;ratioP1;P1;durP2;ratioP2;P2;SDS_P1;SDS_P2;PMS_P1;PMS_P2;Temp;Humidity;BMP_temperature;BMP_pressure;BME280_temperature;BME280_humidity;BME280_pressure;Samples;Min_cycle;Max_cycle;Signal;HPM_P1;HPM_P2
2022/01/24 00:01:44;;;;;;;12.40;8.10;;;5.60;1.00;;;;;;6213641;23;20684;-51
2022/01/24 00:04:10;;;;;;;15.33;8.60;;;5.70;99.90;;;;;;6213415;23;20381;-51
2022/01/24 00:06:37;;;;;;;13.50;8.60;;;5.70;1.00;;;;;;6213765;23;20948;-51
2022/01/24 00:09:04;;;;;;;15.10;8.57;;;5.70;7.90;;;;;;6213612;23;20158;-51
2022/01/24 00:17:06;;;;;;;14.27;8.37;;;5.60;99.90;;;;;;6220165;23;20495;-51
2022/01/24 00:27:46;;;;;;;14.83;8.70;;;5.60;99.90;;;;;;6213395;23;20699;-51
2022/01/24 00:30:11;;;;;;;11.97;8.53;;;5.60;1.00;;;;;;6213424;23;20374;-51
2022/01/24 00:32:37;;;;;;;11.73;8.50;;;5.60;99.90;;;;;;6211578;23;20257;-51
2022/01/24 00:35:03;;;;;;;12.50;7.33;;;5.60;93.60;;;;;;6212973;23;20632;-51
2022/01/24 00:37:32;;;;;;;11.23;7.87;;;5.60;99.90;;;;;;6213429;23;20385;-51
2022/01/24 00:39:58;;;;;;;16.80;8.97;;;5.60;1.00;;;;;;6213372;23;20178;-51
2022/01/24 00:53:29;;;;;;;13.13;7.87;;;5.50;23.70;;;;;;6212915;23;20408;-51
2022/01/24 00:55:54;;;;;;;13.53;9.00;;;5.50;96.60;;;;;;6212762;23;20420;-51
2022/01/24 00:58:20;;;;;;;13.50;8.60;;;5.50;99.90;;;;;;6213255;23;20424;-51
2022/01/24 01:00:46;;;;;;;12.70;8.30;;;5.50;1.00;;;;;;6212783;23;20171;-51
2022/01/24 01:03:11;;;;;;;13.30;8.60;;;5.50;1.00;;;;;;6212463;23;20155;-51
2022/01/24 01:19:17;;;;;;;11.87;7.50;;;5.50;99.90;;;;;;6212666;23;20487;-51
2022/01/24 01:21:43;;;;;;;11.30;8.37;;;5.50;99.90;;;;;;6212765;23;20393;-51
2022/01/24 01:24:08;;;;;;;17.23;8.53;;;5.40;99.90;;;;;;6213046;23;20147;-51
2022/01/24 01:26:46;;;;;;;13.87;8.90;;;5.40;99.90;;;;;;6212471;23;20162;-51
2022/01/24 01:29:32;;;;;;;15.70;8.87;;;5.40;99.90;;;;;;6212678;23;20603;-51
2022/01/24 01:37:49;;;;;;;11.60;8.10;;;5.50;25.60;;;;;;6212463;23;20423;-51
2022/01/24 01:54:10;;;;;;;12.67;8.20;;;5.50;1.00;;;;;;6212358;23;20368;-51
2022/01/24 01:56:36;;;;;;;13.90;8.40;;;5.40;99.90;;;;;;6212243;23;20417;-51
2022/01/24 01:59:02;;;;;;;18.47;9.90;;;5.40;99.90;;;;;;6212634;23;20384;-51
2022/01/24 02:01:28;;;;;;;14.83;8.63;;;5.50;1.00;;;;;;6212737;23;20205;-51
2022/01/24 02:03:55;;;;;;;14.33;9.10;;;5.40;1.00;;;;;;6212179;23;20374;-51
2022/01/24 02:06:21;;;;;;;17.73;9.70;;;5.40;12.60;;;;;;6211911;23;20169;-51
2022/01/24 02:08:47;;;;;;;14.73;9.27;;;5.30;99.90;;;;;;6212201;23;20389;-51
2022/01/24 02:11:16;;;;;;;14.23;9.27;;;5.30;1.00;;;;;;6210573;23;20390;-51
2022/01/24 02:13:45;;;;;;;18.13;10.23;;;5.30;1.00;;;;;;6212422;23;20143;-51
2022/01/24 02:19:12;;;;;;;16.03;9.07;;;5.40;1.00;;;;;;6211878;23;20981;-51
2022/01/24 02:24:12;;;;;;;17.37;9.63;;;5.30;1.00;;;;;;6222011;23;20365;-72
2022/01/24 02:26:39;;;;;;;16.20;9.80;;;5.30;99.90;;;;;;6212225;23;20369;-51
2022/01/24 02:31:52;;;;;;;16.13;9.47;;;5.30;1.00;;;;;;6150541;23;20385;-51
2022/01/24 02:34:20;;;;;;;15.20;9.30;;;5.20;1.00;;;;;;6212626;23;20408;-51
2022/01/24 02:36:45;;;;;;;13.60;8.80;;;5.20;54.10;;;;;;6212211;23;20421;-51
2022/01/24 02:39:43;;;;;;;17.10;9.63;;;5.20;99.90;;;;;;6211935;23;20773;-51
2022/01/24 02:50:26;;;;;;;15.10;9.40;;;5.20;1.00;;;;;;6211254;23;20750;-51
2022/01/24 02:52:52;;;;;;;16.23;9.57;;;5.20;1.00;;;;;;6211275;23;20357;-51
2022/01/24 02:55:18;;;;;;;15.83;9.23;;;5.30;99.90;;;;;;6211485;23;20425;-51
2022/01/24 02:57:43;;;;;;;14.47;9.10;;;5.20;99.90;;;;;;6211676;23;20423;-51
2022/01/24 03:00:09;;;;;;;16.57;10.30;;;5.30;99.90;;;;;;6209984;23;20162;-51
2022/01/24 03:02:35;;;;;;;15.53;9.83;;;5.20;78.40;;;;;;6210802;23;20234;-51
2022/01/24 03:05:00;;;;;;;15.73;9.50;;;5.20;77.40;;;;;;6211362;23;20471;-51
2022/01/24 03:07:26;;;;;;;15.27;8.57;;;5.20;1.00;;;;;;6212350;23;20474;-50
2022/01/24 03:09:54;;;;;;;10.93;7.40;;;5.20;1.00;;;;;;6212003;23;20155;-51
2022/01/24 03:12:59;;;;;;;15.70;8.20;;;5.30;99.90;;;;;;6210167;23;20138;-51
2022/01/24 03:15:12;;;;;;;13.43;8.57;;;5.30;1.00;;;;;;6205148;23;20436;-51
2022/01/24 03:17:38;;;;;;;12.30;7.30;;;5.20;53.40;;;;;;6211540;23;20472;-51
2022/01/24 03:20:05;;;;;;;11.00;7.87;;;5.20;99.90;;;;;;6211262;23;20959;-51
2022/01/24 03:22:31;;;;;;;13.43;7.80;;;5.10;1.00;;;;;;6211407;23;20165;-50
2022/01/24 03:24:57;;;;;;;14.23;7.83;;;5.10;99.90;;;;;;6213988;23;20707;-51
2022/01/24 03:27:23;;;;;;;12.10;7.87;;;5.20;99.90;;;;;;6211647;23;20569;-51
2022/01/24 03:29:48;;;;;;;13.90;8.03;;;5.20;99.90;;;;;;6213328;23;20170;-51
2022/01/24 03:32:14;;;;;;;10.37;7.20;;;5.20;1.00;;;;;;6213265;23;20748;-51
2022/01/24 03:34:40;;;;;;;13.17;7.73;;;5.20;99.90;;;;;;6213644;23;20153;-51
2022/01/24 03:37:07;;;;;;;11.60;6.60;;;5.20;52.70;;;;;;6213245;23;20178;-52
2022/01/24 03:39:33;;;;;;;11.50;7.73;;;5.10;99.90;;;;;;6213166;23;20416;-61
2022/01/24 03:41:59;;;;;;;12.17;7.73;;;5.10;5.80;;;;;;6213176;23;20370;-51
2022/01/24 03:44:26;;;;;;;14.23;8.03;;;5.10;99.90;;;;;;6211147;23;20426;-51
2022/01/24 03:52:10;;;;;;;11.90;7.93;;;5.10;99.90;;;;;;6213060;23;20393;-51
2022/01/24 03:54:36;;;;;;;13.23;7.43;;;5.10;99.90;;;;;;6213359;23;20374;-52
2022/01/24 03:57:03;;;;;;;13.23;8.57;;;5.00;99.90;;;;;;6212829;23;20175;-50
2022/01/24 03:59:31;;;;;;;15.03;8.43;;;5.00;99.90;;;;;;6212939;23;20378;-51
2022/01/24 04:02:00;;;;;;;13.23;7.57;;;5.00;1.00;;;;;;6211533;23;20408;-51
2022/01/24 04:04:27;;;;;;;15.60;8.57;;;5.00;1.00;;;;;;6213140;23;20428;-51
2022/01/24 04:06:53;;;;;;;12.77;8.13;;;5.00;1.00;;;;;;6213217;23;20803;-51
2022/01/24 04:09:18;;;;;;;12.23;7.90;;;5.00;99.90;;;;;;6212902;23;20402;-52
2022/01/24 04:11:44;;;;;;;13.03;8.00;;;5.00;99.90;;;;;;6213282;23;20369;-51
2022/01/24 04:14:38;;;;;;;16.50;9.20;;;4.90;1.00;;;;;;6212947;23;20491;-50
2022/01/24 04:17:08;;;;;;;13.13;8.10;;;4.90;99.90;;;;;;6210229;23;20198;-51
2022/01/24 04:22:07;;;;;;;14.17;8.20;;;4.90;99.90;;;;;;6223082;23;20366;-51
2022/01/24 04:24:32;;;;;;;14.50;8.30;;;4.90;99.90;;;;;;6212416;23;20374;-51
2022/01/24 04:26:58;;;;;;;14.03;8.13;;;4.90;99.90;;;;;;6212675;23;20162;-51
2022/01/24 04:29:23;;;;;;;12.73;7.97;;;4.90;99.90;;;;;;6212593;23;20147;-51
2022/01/24 04:31:49;;;;;;;14.60;8.10;;;4.90;1.00;;;;;;6212748;23;20840;-51
2022/01/24 04:34:14;;;;;;;14.63;8.63;;;4.90;99.90;;;;;;6211608;23;20184;-51
2022/01/24 04:36:40;;;;;;;13.43;7.70;;;4.80;99.90;;;;;;6212351;23;20199;-52
2022/01/24 04:39:06;;;;;;;15.20;9.47;;;4.90;1.00;;;;;;6212387;23;20452;-51
2022/01/24 04:41:38;;;;;;;17.63;9.43;;;4.80;1.00;;;;;;6212611;23;20533;-51
2022/01/24 04:44:29;;;;;;;14.70;9.07;;;4.80;1.00;;;;;;6212741;23;20142;-51
2022/01/24 04:47:16;;;;;;;14.90;8.67;;;4.80;99.90;;;;;;6212686;23;20832;-51
2022/01/24 04:52:43;;;;;;;18.07;9.60;;;4.80;99.90;;;;;;6212943;23;20392;-51
2022/01/24 04:55:08;;;;;;;16.90;10.03;;;4.80;99.90;;;;;;6212875;23;20437;-51
2022/01/24 04:57:34;;;;;;;15.03;9.43;;;4.80;99.90;;;;;;6212243;23;20749;-52
2022/01/24 05:00:02;;;;;;;17.87;11.17;;;4.90;99.90;;;;;;6212172;23;20150;-51
2022/01/24 05:02:27;;;;;;;19.47;11.33;;;4.90;1.00;;;;;;6212615;23;20139;-51
2022/01/24 05:04:54;;;;;;;17.20;9.87;;;4.90;1.00;;;;;;6212605;23;20382;-51
2022/01/24 05:07:20;;;;;;;17.70;9.10;;;4.90;1.00;;;;;;6212873;23;20150;-51
2022/01/24 05:10:07;;;;;;;20.70;10.30;;;4.90;99.90;;;;;;6213013;23;20453;-51
2022/01/24 05:25:51;;;;;;;21.10;11.33;;;4.80;1.00;;;;;;6222233;23;20382;-51
2022/01/24 05:28:17;;;;;;;16.83;10.20;;;4.80;29.70;;;;;;6212702;23;20166;-51
2022/01/24 05:30:43;;;;;;;24.03;12.30;;;4.80;1.00;;;;;;6212335;23;20158;-51
2022/01/24 05:33:08;;;;;;;22.13;11.93;;;4.80;92.40;;;;;;6211797;23;20423;-51
2022/01/24 05:35:34;;;;;;;18.30;11.43;;;4.80;99.90;;;;;;6212037;23;20193;-51
2022/01/24 05:38:00;;;;;;;18.67;11.13;;;4.80;1.00;;;;;;6185474;23;20174;-51
2022/01/24 05:40:26;;;;;;;23.47;12.40;;;4.80;1.00;;;;;;6212380;23;20197;-51
2022/01/24 05:42:51;;;;;;;19.77;11.37;;;4.80;99.90;;;;;;6212332;23;20158;-51
2022/01/24 05:45:17;;;;;;;21.87;11.97;;;4.80;1.00;;;;;;6212075;23;20222;-51
2022/01/24 05:47:43;;;;;;;24.53;13.97;;;4.80;5.10;;;;;;6212290;23;20151;-51
2022/01/24 05:50:09;;;;;;;24.90;12.90;;;4.70;91.40;;;;;;6212006;23;20207;-51
2022/01/24 05:52:34;;;;;;;25.57;12.40;;;4.70;99.90;;;;;;6212026;23;20212;-51
2022/01/24 05:55:00;;;;;;;20.60;11.30;;;4.70;1.00;;;;;;6212056;23;20183;-51
2022/01/24 05:57:26;;;;;;;22.30;12.20;;;4.80;99.90;;;;;;6212247;23;20707;-51
2022/01/24 05:59:51;;;;;;;20.27;10.87;;;4.80;99.90;;;;;;6211980;23;20424;-51
2022/01/24 06:02:17;;;;;;;19.80;11.03;;;4.80;1.00;;;;;;6212394;23;20515;-51
2022/01/24 06:04:43;;;;;;;19.40;10.97;;;4.80;99.90;;;;;;6211005;23;20153;-50
2022/01/24 06:07:08;;;;;;;22.67;11.60;;;4.80;16.70;;;;;;6212085;23;20199;-51
2022/01/24 06:09:34;;;;;;;23.90;12.20;;;4.80;1.00;;;;;;6211789;23;20222;-51
2022/01/24 06:11:59;;;;;;;21.50;11.70;;;4.80;99.90;;;;;;6212134;23;20234;-51
2022/01/24 06:14:25;;;;;;;20.87;12.10;;;4.80;1.00;;;;;;6212486;23;20145;-51
2022/01/24 06:16:50;;;;;;;25.60;12.90;;;4.80;1.00;;;;;;6211670;23;20181;-51
2022/01/24 06:19:16;;;;;;;29.70;13.50;;;4.70;69.50;;;;;;6211460;23;20202;-51
2022/01/24 06:21:44;;;;;;;25.47;12.87;;;4.70;99.90;;;;;;6212310;23;20154;-51
2022/01/24 06:24:10;;;;;;;21.50;11.77;;;4.70;1.00;;;;;;6211766;23;20144;-50
2022/01/24 06:26:35;;;;;;;22.40;12.47;;;4.70;1.00;;;;;;6212403;23;20772;-51
2022/01/24 06:29:01;;;;;;;22.40;12.83;;;4.80;1.00;;;;;;6185730;23;20246;-51
2022/01/24 06:31:26;;;;;;;25.10;13.83;;;4.80;99.90;;;;;;6212380;23;20225;-51
2022/01/24 06:33:52;;;;;;;21.57;11.90;;;4.80;99.90;;;;;;6211628;23;20146;-51
2022/01/24 06:36:18;;;;;;;22.57;12.23;;;4.70;99.90;;;;;;6211365;23;20185;-51
2022/01/24 06:38:43;;;;;;;25.63;13.53;;;4.80;1.00;;;;;;6211679;23;20207;-51
2022/01/24 06:41:09;;;;;;;21.97;12.80;;;4.70;1.00;;;;;;6211949;23;20589;-51
2022/01/24 06:43:34;;;;;;;25.20;13.17;;;4.70;1.00;;;;;;6186101;23;20162;-51
2022/01/24 06:46:01;;;;;;;28.40;13.77;;;4.70;53.20;;;;;;6212178;23;20547;-51
2022/01/24 06:48:27;;;;;;;25.20;13.43;;;4.70;99.90;;;;;;6211463;23;20139;-51
2022/01/24 06:50:52;;;;;;;23.97;12.93;;;4.70;1.00;;;;;;6212095;23;20397;-51
2022/01/24 06:53:18;;;;;;;25.37;13.80;;;4.70;1.00;;;;;;6211926;23;20370;-51
2022/01/24 06:55:44;;;;;;;27.50;14.30;;;4.70;1.00;;;;;;6211939;23;20170;-51
2022/01/24 06:58:09;;;;;;;27.77;14.03;;;4.70;1.00;;;;;;6212504;23;20154;-51
2022/01/24 07:00:35;;;;;;;32.43;15.40;;;4.70;1.00;;;;;;6213256;23;20149;-52
2022/01/24 07:03:00;;;;;;;28.43;14.33;;;4.70;1.00;;;;;;6213752;23;20146;-51
2022/01/24 07:05:27;;;;;;;30.60;14.73;;;4.70;99.90;;;;;;6187845;23;20495;-54
2022/01/24 07:07:56;;;;;;;24.50;13.87;;;4.70;99.90;;;;;;6214245;23;20213;-55
2022/01/24 07:10:24;;;;;;;31.40;14.60;;;4.70;99.90;;;;;;6215967;23;20400;-51
2022/01/24 07:12:51;;;;;;;30.27;14.37;;;4.80;1.00;;;;;;6213612;23;20381;-51
2022/01/24 07:15:19;;;;;;;28.37;15.20;;;4.80;99.90;;;;;;6213144;23;20369;-56
2022/01/24 07:20:13;;;;;;;28.10;15.63;;;4.90;99.90;;;;;;6214580;23;20951;-51
2022/01/24 07:22:39;;;;;;;32.23;15.80;;;4.90;1.00;;;;;;6190791;23;20472;-51
2022/01/24 07:25:05;;;;;;;36.67;16.50;;;4.90;1.00;;;;;;6213548;23;20370;-51
2022/01/24 07:27:30;;;;;;;32.97;16.53;;;4.90;1.00;;;;;;6212996;23;20233;-51
2022/01/24 07:29:58;;;;;;;33.70;15.67;;;4.80;99.90;;;;;;6213442;23;20174;-50
2022/01/24 07:32:23;;;;;;;29.67;15.83;;;4.80;99.90;;;;;;6212735;23;20485;-51
2022/01/24 07:34:50;;;;;;;30.97;16.33;;;4.80;95.00;;;;;;6212900;23;20384;-51
2022/01/24 07:37:16;;;;;;;36.63;17.70;;;4.80;99.90;;;;;;6213055;23;20210;-51
2022/01/24 07:39:41;;;;;;;33.73;16.60;;;4.80;99.90;;;;;;6212882;23;20728;-51
2022/01/24 07:42:16;;;;;;;37.23;18.30;;;4.80;64.60;;;;;;6212432;23;20186;-51
2022/01/24 07:44:42;;;;;;;37.40;16.40;;;4.80;1.00;;;;;;6213062;23;20144;-50
2022/01/24 07:47:08;;;;;;;39.07;18.70;;;4.80;1.00;;;;;;6211430;23;20942;-50
2022/01/24 07:49:34;;;;;;;42.03;19.83;;;4.80;1.00;;;;;;6212873;23;20373;-50
2022/01/24 07:52:01;;;;;;;42.47;20.13;;;4.80;1.00;;;;;;6212958;23;20231;-51
2022/01/24 07:54:27;;;;;;;42.00;20.00;;;4.80;1.00;;;;;;6211038;23;20686;-50
2022/01/24 07:56:52;;;;;;;48.20;20.57;;;4.80;99.90;;;;;;6212546;23;20418;-50
2022/01/24 07:59:19;;;;;;;48.47;21.30;;;4.80;99.90;;;;;;6212238;23;20651;-50
2022/01/24 08:01:46;;;;;;;43.50;19.80;;;4.80;1.00;;;;;;6210398;23;20514;-50
2022/01/24 08:04:11;;;;;;;44.50;20.27;;;4.80;99.90;;;;;;6211746;23;20856;-51
2022/01/24 08:06:37;;;;;;;47.10;21.77;;;4.80;99.90;;;;;;6212036;23;20400;-51
2022/01/24 08:09:05;;;;;;;49.23;23.00;;;4.80;99.90;;;;;;6211541;23;20150;-50
2022/01/24 08:11:32;;;;;;;47.83;21.83;;;4.80;99.90;;;;;;6185705;23;20178;-50
2022/01/24 08:13:58;;;;;;;51.50;23.90;;;4.90;1.00;;;;;;6212421;23;20464;-51
2022/01/24 08:16:24;;;;;;;56.40;23.13;;;4.90;99.90;;;;;;6212459;23;20499;-62
2022/01/24 08:18:55;;;;;;;50.20;23.63;;;4.90;2.60;;;;;;6210259;23;20441;-51
2022/01/24 08:21:20;;;;;;;58.00;26.73;;;4.90;1.00;;;;;;6212358;23;20457;-51
2022/01/24 08:23:46;;;;;;;54.97;25.97;;;4.90;1.00;;;;;;6212188;23;20420;-51
2022/01/24 08:26:12;;;;;;;59.03;27.00;;;4.90;99.90;;;;;;6212663;23;20170;-50
2022/01/24 08:28:38;;;;;;;53.10;25.30;;;5.00;99.90;;;;;;6212474;23;20370;-50
2022/01/24 08:31:03;;;;;;;55.03;26.23;;;4.90;32.20;;;;;;6212411;23;20147;-51
2022/01/24 08:33:29;;;;;;;60.63;26.33;;;4.90;29.90;;;;;;6211173;23;20632;-50
2022/01/24 08:35:54;;;;;;;53.60;26.03;;;4.90;99.90;;;;;;6211861;23;20170;-51
2022/01/24 08:38:21;;;;;;;57.33;26.47;;;4.90;99.90;;;;;;6210933;23;20150;-51
2022/01/24 08:40:49;;;;;;;58.23;26.47;;;4.90;99.90;;;;;;6212642;23;20173;-50
2022/01/24 08:43:23;;;;;;;59.10;27.03;;;4.90;99.90;;;;;;6185388;23;20689;-50
2022/01/24 08:45:50;;;;;;;59.77;27.27;;;4.90;99.90;;;;;;6211758;23;20969;-60
2022/01/24 08:48:21;;;;;;;53.57;27.90;;;4.90;99.90;;;;;;6211482;23;20468;-50
2022/01/24 08:50:53;;;;;;;64.87;28.90;;;5.00;99.90;;;;;;6212573;23;20374;-50
2022/01/24 08:53:18;;;;;;;64.77;28.33;;;5.00;1.00;;;;;;6211912;23;20390;-50
2022/01/24 08:55:45;;;;;;;64.33;28.50;;;5.00;1.00;;;;;;6211613;23;20482;-50
2022/01/24 08:58:15;;;;;;;58.03;26.90;;;4.90;1.00;;;;;;6210716;23;20169;-50
2022/01/24 09:00:42;;;;;;;67.87;30.17;;;4.90;1.00;;;;;;6210777;23;20819;-51
2022/01/24 09:03:08;;;;;;;67.47;30.10;;;5.00;24.90;;;;;;6211408;23;20385;-50
2022/01/24 09:05:35;;;;;;;67.83;30.37;;;5.00;32.30;;;;;;6211369;23;20394;-50
2022/01/24 09:08:05;;;;;;;65.23;29.80;;;5.00;1.00;;;;;;6211361;23;20445;-50
2022/01/24 09:10:32;;;;;;;62.43;28.10;;;5.00;1.00;;;;;;6211313;23;20675;-50
2022/01/24 09:12:58;;;;;;;66.37;28.43;;;5.00;1.00;;;;;;6212295;23;20710;-51
2022/01/24 09:15:23;;;;;;;68.13;29.50;;;5.00;1.00;;;;;;6211764;23;20424;-50
2022/01/24 09:17:49;;;;;;;62.30;27.70;;;5.10;1.00;;;;;;6212326;23;20396;-50
2022/01/24 09:20:15;;;;;;;63.27;29.50;;;5.10;1.00;;;;;;6211387;23;20201;-50
2022/01/24 09:22:42;;;;;;;73.03;29.20;;;5.10;1.00;;;;;;6211712;23;20174;-50
2022/01/24 09:25:12;;;;;;;65.10;29.57;;;5.10;1.00;;;;;;6212352;23;20587;-51
2022/01/24 09:27:39;;;;;;;67.83;31.37;;;5.10;1.00;;;;;;6211580;23;20424;-51
2022/01/24 09:30:06;;;;;;;59.23;28.57;;;5.10;1.00;;;;;;6211463;23;20377;-50
2022/01/24 09:32:31;;;;;;;68.30;30.67;;;5.10;1.00;;;;;;6211413;23;20395;-50
2022/01/24 09:34:57;;;;;;;62.70;27.97;;;5.10;1.00;;;;;;6211421;23;20382;-50
2022/01/24 09:37:23;;;;;;;63.90;28.50;;;5.10;1.00;;;;;;6211530;23;20193;-50
2022/01/24 09:39:48;;;;;;;61.80;27.83;;;5.10;1.00;;;;;;6211465;23;20173;-50
2022/01/24 09:42:14;;;;;;;66.90;28.70;;;5.10;1.00;;;;;;6210950;23;20161;-50
2022/01/24 09:44:39;;;;;;;63.37;28.10;;;5.20;1.00;;;;;;6211552;23;20181;-52
2022/01/24 09:47:05;;;;;;;59.13;27.20;;;5.10;1.00;;;;;;6211547;23;20154;-50
2022/01/24 09:49:30;;;;;;;61.27;28.30;;;5.20;1.00;;;;;;6212013;23;20453;-50
2022/01/24 09:51:56;;;;;;;65.07;27.70;;;5.10;1.00;;;;;;6211342;23;20588;-51
2022/01/24 09:54:21;;;;;;;63.10;28.20;;;5.20;1.00;;;;;;6211447;23;20142;-50
2022/01/24 09:56:47;;;;;;;62.23;26.00;;;5.20;1.00;;;;;;6184456;23;20277;-50
2022/01/24 09:59:13;;;;;;;60.70;25.50;;;5.20;1.00;;;;;;6212139;23;20212;-49
2022/01/24 10:01:39;;;;;;;59.20;27.77;;;5.20;1.00;;;;;;6211894;23;20153;-50
2022/01/24 10:04:17;;;;;;;62.27;27.40;;;5.20;1.00;;;;;;6211866;23;20157;-50
2022/01/24 10:07:18;;;;;;;62.30;27.77;;;5.20;1.00;;;;;;6209996;23;20449;-50
2022/01/24 10:09:46;;;;;;;52.30;23.03;;;5.20;1.00;;;;;;6119330;23;20730;-50
2022/01/24 10:16:24;;;;;;;66.30;26.00;;;5.30;1.00;;;;;;6194126;23;20400;-50
2022/01/24 10:18:05;;;;;;;64.33;26.37;;;5.30;1.00;;;;;;6211947;23;20425;-49
2022/01/24 10:20:34;;;;;;;56.00;25.60;;;5.30;1.00;;;;;;6212198;23;20370;-55
2022/01/24 10:23:09;;;;;;;59.30;25.83;;;5.30;1.00;;;;;;6212423;23;20362;-50
2022/01/24 10:25:59;;;;;;;60.33;27.33;;;5.30;1.00;;;;;;6211208;23;20767;-51
2022/01/24 10:28:38;;;;;;;53.33;25.00;;;5.30;1.00;;;;;;6185557;23;20421;-51
2022/01/24 10:31:16;;;;;;;56.57;24.17;;;5.40;1.00;;;;;;6213042;23;20383;-51
2022/01/24 10:34:35;;;;;;;53.20;23.87;;;5.40;1.00;;;;;;6211017;23;20373;-51
2022/01/24 10:36:54;;;;;;;49.50;21.67;;;5.40;1.00;;;;;;6211220;23;20911;-51
2022/01/24 10:45:18;;;;;;;53.53;22.33;;;5.40;1.00;;;;;;6211918;23;20404;-50
2022/01/24 10:47:48;;;;;;;52.13;21.63;;;5.40;99.90;;;;;;6212198;23;20419;-50
2022/01/24 10:50:24;;;;;;;48.33;21.93;;;5.40;99.90;;;;;;6209685;23;20370;-50
2022/01/24 10:52:52;;;;;;;55.90;21.27;;;5.40;99.90;;;;;;6212143;23;20397;-50
2022/01/24 10:55:19;;;;;;;48.20;20.97;;;5.40;99.90;;;;;;6212157;23;20376;-50
2022/01/24 10:57:50;;;;;;;50.70;22.30;;;5.50;99.90;;;;;;6211434;23;20460;-50
2022/01/24 11:00:23;;;;;;;46.17;20.20;;;5.40;99.90;;;;;;6211843;23;20685;-50
2022/01/24 11:02:51;;;;;;;50.13;20.87;;;5.40;99.90;;;;;;6211888;23;20370;-50
2022/01/24 11:05:29;;;;;;;56.20;22.80;;;5.40;99.90;;;;;;6209041;23;20366;-50
2022/01/24 11:08:04;;;;;;;64.20;24.13;;;5.40;1.00;;;;;;6210908;23;20400;-51
2022/01/24 11:10:49;;;;;;;50.27;21.63;;;5.50;1.00;;;;;;6211456;23;20361;-51
2022/01/24 11:13:19;;;;;;;52.20;21.57;;;5.50;1.00;;;;;;6210931;23;20362;-51
2022/01/24 11:15:55;;;;;;;53.60;22.57;;;5.40;1.00;;;;;;6210056;23;20484;-50
2022/01/24 11:18:21;;;;;;;54.63;22.20;;;5.50;1.00;;;;;;6211357;23;20520;-50
2022/01/24 11:20:49;;;;;;;48.80;21.30;;;5.50;99.90;;;;;;6211418;23;20445;-50
2022/01/24 11:23:21;;;;;;;56.40;22.93;;;5.40;99.90;;;;;;6211672;23;20435;-50
2022/01/24 11:25:49;;;;;;;60.50;25.30;;;5.50;99.90;;;;;;6211683;23;20369;-50
2022/01/24 11:28:15;;;;;;;52.07;24.23;;;5.50;99.90;;;;;;6211490;23;20393;-51
2022/01/24 11:31:03;;;;;;;60.03;23.97;;;5.40;99.90;;;;;;6211022;23;20464;-50
2022/01/24 11:33:41;;;;;;;55.67;24.80;;;5.50;99.90;;;;;;6211402;23;20374;-50
2022/01/24 11:36:08;;;;;;;59.53;24.40;;;5.50;99.90;;;;;;6209894;23;20504;-49
2022/01/24 11:38:37;;;;;;;56.47;24.27;;;5.40;99.90;;;;;;6211793;23;20428;-50
2022/01/24 11:41:04;;;;;;;55.03;24.23;;;5.50;99.90;;;;;;6212170;23;20440;-50
2022/01/24 11:43:43;;;;;;;67.90;27.03;;;5.40;99.90;;;;;;6211629;23;20358;-55
2022/01/24 11:46:34;;;;;;;66.60;27.50;;;5.40;99.90;;;;;;6213559;23;20419;-51
2022/01/24 11:49:05;;;;;;;76.73;29.80;;;5.40;99.90;;;;;;6212503;23;20664;-50
2022/01/24 11:51:32;;;;;;;64.37;28.23;;;5.40;99.90;;;;;;6213480;23;20381;-49
2022/01/24 11:53:58;;;;;;;75.33;28.47;;;5.40;99.90;;;;;;6214226;23;20397;-50
2022/01/24 11:56:27;;;;;;;69.07;28.23;;;5.40;99.90;;;;;;6213326;23;21014;-50
2022/01/24 11:59:21;;;;;;;68.83;29.10;;;5.40;99.90;;;;;;6213338;23;20369;-50
2022/01/24 12:01:52;;;;;;;68.60;28.73;;;5.50;99.90;;;;;;6210571;23;20863;-50
2022/01/24 12:04:48;;;;;;;72.20;29.53;;;5.50;99.90;;;;;;6212958;23;20365;-51
2022/01/24 12:07:24;;;;;;;62.83;27.70;;;5.40;99.90;;;;;;6213172;23;20686;-50
2022/01/24 12:09:53;;;;;;;73.37;30.30;;;5.40;99.90;;;;;;6213136;23;20366;-50
2022/01/24 12:12:37;;;;;;;75.53;31.87;;;5.50;1.00;;;;;;6213158;23;20370;-50
2022/01/24 12:15:06;;;;;;;68.73;30.00;;;5.50;99.90;;;;;;6186525;23;21019;-50
2022/01/24 12:17:47;;;;;;;75.80;30.23;;;5.40;99.90;;;;;;6212620;23;20448;-50
2022/01/24 12:20:31;;;;;;;76.83;31.70;;;5.40;99.90;;;;;;6212633;23;20718;-50
2022/01/24 12:23:16;;;;;;;80.10;30.57;;;5.40;99.90;;;;;;6213212;23;20828;-51
2022/01/24 12:25:54;;;;;;;83.40;33.30;;;5.40;99.90;;;;;;6211953;23;20405;-50
2022/01/24 12:28:24;;;;;;;88.57;33.00;;;5.40;99.90;;;;;;6186024;23;20404;-50
2022/01/24 12:31:08;;;;;;;75.40;32.67;;;5.30;99.90;;;;;;6212971;23;20393;-50
2022/01/24 12:33:39;;;;;;;80.50;31.30;;;5.30;1.00;;;;;;6212717;23;20377;-50
2022/01/24 12:36:13;;;;;;;80.73;33.90;;;5.30;1.00;;;;;;6187673;23;20433;-50
2022/01/24 12:38:50;;;;;;;85.23;33.47;;;5.30;1.00;;;;;;6213905;23;20370;-50
2022/01/24 12:41:28;;;;;;;84.80;34.70;;;5.30;99.90;;;;;;6215605;23;20441;-50
2022/01/24 12:44:11;;;;;;;78.17;33.47;;;5.30;99.90;;;;;;6215479;23;20520;-50
2022/01/24 12:46:38;;;;;;;73.23;31.07;;;5.30;99.90;;;;;;6213519;23;20389;-50
2022/01/24 12:49:06;;;;;;;73.90;31.80;;;5.40;99.90;;;;;;6212817;23;20381;-50
2022/01/24 12:51:38;;;;;;;78.67;33.13;;;5.40;99.90;;;;;;6213106;23;20669;-50
2022/01/24 12:54:05;;;;;;;74.77;31.00;;;5.30;99.90;;;;;;6213205;23;20369;-49
2022/01/24 12:56:33;;;;;;;66.60;30.50;;;5.30;99.90;;;;;;6210916;23;20448;-50
2022/01/24 12:58:59;;;;;;;65.10;28.93;;;5.20;99.90;;;;;;6213180;23;20811;-50
2022/01/24 13:01:33;;;;;;;58.50;27.27;;;5.20;99.90;;;;;;6212998;23;20374;-51
2022/01/24 13:04:02;;;;;;;59.67;25.90;;;5.20;99.90;;;;;;6212472;23;20370;-50
2022/01/24 13:06:31;;;;;;;65.23;25.53;;;5.20;99.90;;;;;;6213383;23;20485;-50
2022/01/24 13:09:03;;;;;;;57.17;25.67;;;5.10;99.90;;;;;;6213416;23;20524;-50
2022/01/24 13:11:30;;;;;;;53.53;25.17;;;5.10;99.90;;;;;;6185800;23;20401;-50
2022/01/24 13:14:16;;;;;;;54.33;24.53;;;5.10;99.90;;;;;;6213098;23;20377;-50
2022/01/24 13:23:12;;;;;;;49.50;22.53;;;5.10;99.90;;;;;;6213634;23;20360;-51
2022/01/24 13:25:12;;;;;;;49.90;24.13;;;5.10;99.90;;;;;;6197622;23;20393;-51
2022/01/24 13:27:39;;;;;;;50.03;23.60;;;5.10;99.90;;;;;;6212936;23;20385;-50
2022/01/24 13:30:08;;;;;;;47.73;23.60;;;5.10;99.90;;;;;;6212621;23;20784;-50
2022/01/24 13:33:01;;;;;;;52.27;24.73;;;5.10;99.90;;;;;;6212594;23;20803;-51
2022/01/24 13:35:41;;;;;;;53.80;24.40;;;5.10;99.90;;;;;;6208601;23;20393;-50
2022/01/24 13:38:38;;;;;;;55.27;24.80;;;5.10;99.90;;;;;;6212699;23;20374;-50
2022/01/24 13:41:12;;;;;;;56.93;27.23;;;5.00;99.90;;;;;;6207173;23;20424;-52
2022/01/24 13:44:00;;;;;;;56.47;26.80;;;5.00;99.90;;;;;;6212234;23;20691;-51
2022/01/24 13:46:40;;;;;;;55.27;24.20;;;5.00;99.90;;;;;;6212218;23;20401;-50
2022/01/24 13:49:08;;;;;;;54.50;24.90;;;5.00;99.90;;;;;;6212025;23;20448;-51
2022/01/24 13:51:46;;;;;;;63.33;26.13;;;5.00;99.90;;;;;;6212948;23;20461;-51
2022/01/24 13:54:17;;;;;;;57.97;26.60;;;5.00;99.90;;;;;;6212112;23;20361;-51
2022/01/24 13:56:48;;;;;;;56.93;26.97;;;5.00;99.90;;;;;;6212215;23;20420;-51
2022/01/24 13:59:40;;;;;;;60.10;27.23;;;5.00;99.90;;;;;;6212394;23;20382;-50
2022/01/24 14:02:16;;;;;;;53.30;24.67;;;5.00;99.90;;;;;;6208123;23;20397;-51
2022/01/24 14:04:52;;;;;;;63.13;27.63;;;5.10;99.90;;;;;;6185039;23;20407;-50
2022/01/24 14:07:21;;;;;;;59.83;26.53;;;5.00;99.90;;;;;;6211599;23;20459;-50
2022/01/24 14:09:49;;;;;;;59.60;26.33;;;5.00;99.90;;;;;;6211743;23;20366;-50
2022/01/24 14:12:53;;;;;;;61.13;27.77;;;5.00;99.90;;;;;;6211880;23;20389;-50
2022/01/24 14:20:44;;;;;;;46.47;21.27;;;5.00;99.90;;;;;;6219674;23;20409;-53
2022/01/24 14:23:24;;;;;;;60.87;25.17;;;5.30;1.00;;;;;;6185161;23;20365;-53
2022/01/24 14:25:50;;;;;;;51.67;24.20;;;6.30;1.00;;;;;;6212404;23;20368;-54
2022/01/24 14:28:18;;;;;;;50.60;23.90;;;6.70;1.00;;;;;;6210479;23;20362;-54
2022/01/24 14:30:46;;;;;;;53.67;24.27;;;6.50;17.30;;;;;;6210489;23;20381;-55
2022/01/24 14:33:21;;;;;;;40.97;21.73;;;6.50;1.00;;;;;;6212029;23;20357;-54
2022/01/24 14:35:54;;;;;;;44.23;21.03;;;6.60;41.40;;;;;;6211869;23;20417;-53
2022/01/24 14:38:44;;;;;;;43.87;21.50;;;6.80;1.00;;;;;;6211944;23;20358;-52
2022/01/24 14:41:17;;;;;;;48.17;22.47;;;7.20;99.90;;;;;;6212077;23;20684;-52
2022/01/24 14:46:32;;;;;;;42.70;19.93;;;7.00;1.00;;;;;;6211684;23;20930;-53
2022/01/24 14:49:07;;;;;;;40.80;20.57;;;7.00;99.90;;;;;;6211180;23;20393;-53
2022/01/24 14:51:39;;;;;;;46.20;22.40;;;6.80;1.00;;;;;;6211546;23;20365;-53
2022/01/24 14:54:07;;;;;;;46.73;21.27;;;6.90;99.90;;;;;;6212200;23;20457;-54
2022/01/24 14:56:35;;;;;;;46.10;20.97;;;7.20;1.00;;;;;;6211838;23;20500;-53
2022/01/24 14:59:00;;;;;;;39.20;21.03;;;7.00;1.00;;;;;;6211921;23;20986;-54
2022/01/24 15:01:26;;;;;;;42.70;20.93;;;7.10;1.00;;;;;;6209630;23;20866;-55